Terminal Aerodrome Forecast
Issued by NWS Charleston, WV

Home | Current Version | Previous Version | Text Only | Print | Product List | Glossary On
Versions: 1 2 3 4 5 6 7 8 9 10 11 12 13 14 15 16 17 18 19 20 21 22 23 24 25
705
FTUS41 KRLX 082332
TAFPKB
TAF
KPKB 082332Z 0900/0924 30011G19KT P6SM OVC035
     FM090600 27007KT P6SM OVC025
     FM092200 27007KT P6SM OVC035=

USA.gov is the U.S. government's official web portal to all federal, state and local government web resources and services.